In Amenas, Algeria
Current Conditions -  °F | °C
As of 9:00 AM on Friday 28 Nov 2014 (Local Time) from DAUZ Reporting Station
Clear Clear  
Wind Chill: 19°   Ceiling: Unl
Heat Index: 19°   Visibility: 6mi
Dew Point: -4°   Wind: 7mph
Humidity: 21%   Direction: 110°ESE
Pressure: 29.91"   Gusts: NA
Location:  28.05°N, 9.56°E
Report Text: DAUZ 280800Z 11006KT 090V150 CAVOK 19/M04 Q1013
Loading
Personal Weather Stations






























Interactive Weather Map New forecast layout! Learn more

10-Day Weather Forecast

Advertisements
Track Severe Weather on mobile